createdAt,value
2022-12-31T00:01:14.471Z,10.40
2022-12-31T00:03:41.741Z,10.40
2022-12-31T00:06:14.518Z,10.40
2022-12-31T00:08:41.897Z,10.50
2022-12-31T00:11:08.958Z,10.40
2022-12-31T00:13:36.068Z,10.40
2022-12-31T00:16:12.184Z,10.50
2022-12-31T00:18:39.385Z,10.50
2022-12-31T00:21:07.310Z,10.50
2022-12-31T00:23:34.244Z,10.60
2022-12-31T00:26:08.669Z,10.60
2022-12-31T00:28:36.211Z,10.50
2022-12-31T00:31:10.048Z,10.50
2022-12-31T00:33:37.002Z,10.40
2022-12-31T00:36:08.140Z,10.40
2022-12-31T00:38:35.181Z,10.40
2022-12-31T00:41:01.991Z,10.40
2022-12-31T00:43:28.664Z,10.40
2022-12-31T00:45:55.482Z,10.40
2022-12-31T00:48:22.218Z,10.40
2022-12-31T00:50:48.975Z,10.50
2022-12-31T00:53:15.776Z,10.60
2022-12-31T00:55:42.498Z,10.50
2022-12-31T00:58:09.317Z,10.50
2022-12-31T01:00:36.492Z,10.50
2022-12-31T01:03:03.635Z,10.50
2022-12-31T01:05:31.215Z,10.50
2022-12-31T01:07:57.883Z,10.50
2022-12-31T01:10:43.419Z,10.40
2022-12-31T01:13:10.088Z,10.40
2022-12-31T01:15:37.437Z,10.30
2022-12-31T01:18:04.933Z,10.40
2022-12-31T01:20:35.289Z,10.30
2022-12-31T01:23:01.972Z,10.30
2022-12-31T01:25:28.819Z,10.30
2022-12-31T01:27:55.451Z,10.30
2022-12-31T01:30:22.153Z,10.30
2022-12-31T01:32:48.842Z,10.40
2022-12-31T01:35:15.480Z,10.30
2022-12-31T01:37:42.161Z,10.40
2022-12-31T01:40:08.926Z,10.40
2022-12-31T01:42:35.593Z,10.50
2022-12-31T01:45:02.361Z,10.60
2022-12-31T01:47:35.115Z,10.60
2022-12-31T01:50:04.275Z,10.50
2022-12-31T01:52:32.176Z,10.50
2022-12-31T01:55:01.986Z,10.50
2022-12-31T01:57:28.934Z,10.40
2022-12-31T01:59:56.369Z,10.40
2022-12-31T02:02:23.097Z,10.40
2022-12-31T02:04:51.200Z,10.50
2022-12-31T02:07:17.895Z,10.50
2022-12-31T02:09:44.659Z,10.60
2022-12-31T02:12:11.601Z,10.70
2022-12-31T02:14:40.196Z,10.80
2022-12-31T02:17:13.678Z,10.80
2022-12-31T02:20:07.915Z,10.90
2022-12-31T02:22:56.942Z,10.90
2022-12-31T02:25:34.529Z,11.00
2022-12-31T02:28:26.934Z,11.00
2022-12-31T02:30:57.299Z,10.90
2022-12-31T02:33:32.280Z,10.90
2022-12-31T02:36:01.587Z,10.90
2022-12-31T02:38:33.911Z,10.90
2022-12-31T02:41:00.707Z,10.90
2022-12-31T02:43:27.509Z,10.90
2022-12-31T02:46:01.293Z,10.90
2022-12-31T02:48:40.707Z,11.00
2022-12-31T02:51:22.801Z,10.90
2022-12-31T02:54:11.774Z,11.00
2022-12-31T02:57:04.843Z,11.00
2022-12-31T02:59:50.122Z,11.00
2022-12-31T03:02:19.550Z,11.00
2022-12-31T03:04:56.017Z,11.10
2022-12-31T03:07:23.897Z,11.10
2022-12-31T03:09:50.956Z,11.10
2022-12-31T03:12:37.410Z,11.20
2022-12-31T03:15:06.689Z,11.20
2022-12-31T03:17:34.205Z,11.30
2022-12-31T03:20:19.685Z,11.30
2022-12-31T03:22:47.545Z,11.30
2022-12-31T03:25:34.851Z,11.30
2022-12-31T03:28:21.209Z,11.40
2022-12-31T03:30:49.909Z,11.40
2022-12-31T03:33:16.663Z,11.40
2022-12-31T03:35:44.304Z,11.40
2022-12-31T03:38:11.284Z,11.50
2022-12-31T03:40:39.489Z,11.50
2022-12-31T03:43:06.570Z,11.50
2022-12-31T03:45:35.447Z,11.50
2022-12-31T03:48:03.389Z,11.50
2022-12-31T03:50:30.248Z,11.50
2022-12-31T03:52:57.085Z,11.50
2022-12-31T03:55:24.411Z,11.60
2022-12-31T03:57:51.096Z,11.60
2022-12-31T04:00:19.543Z,11.70
2022-12-31T04:02:46.987Z,11.80
2022-12-31T04:05:13.793Z,11.80
2022-12-31T04:07:41.165Z,11.80
2022-12-31T04:10:08.942Z,11.90
2022-12-31T04:12:35.591Z,11.80
2022-12-31T04:15:02.228Z,11.90
2022-12-31T04:17:28.857Z,11.90
2022-12-31T04:19:55.670Z,11.90
2022-12-31T04:22:22.347Z,11.90
2022-12-31T04:24:49.003Z,11.90
2022-12-31T04:27:15.762Z,12.00
2022-12-31T04:29:42.484Z,12.00
2022-12-31T04:32:09.381Z,12.10
2022-12-31T04:34:36.034Z,12.20
2022-12-31T04:37:03.039Z,12.30
2022-12-31T04:39:29.731Z,12.40
2022-12-31T04:41:56.411Z,12.50
2022-12-31T04:44:23.153Z,12.50
2022-12-31T04:46:49.817Z,12.50
2022-12-31T04:49:16.603Z,12.60
2022-12-31T04:51:43.224Z,12.60
2022-12-31T04:54:10.981Z,12.70
2022-12-31T04:56:37.770Z,12.70
2022-12-31T04:59:05.095Z,12.60
2022-12-31T05:01:32.987Z,12.60
2022-12-31T05:04:00.161Z,12.70
2022-12-31T05:06:27.053Z,12.70
2022-12-31T05:08:53.709Z,12.70
2022-12-31T05:11:20.366Z,12.80
2022-12-31T05:13:47.078Z,12.80
2022-12-31T05:16:13.892Z,12.80
2022-12-31T05:18:40.586Z,12.90
2022-12-31T05:21:07.558Z,12.90
2022-12-31T05:23:34.261Z,12.80
2022-12-31T05:26:01.758Z,12.90
2022-12-31T05:28:28.524Z,13.00
2022-12-31T05:30:55.512Z,13.00
2022-12-31T05:33:23.006Z,13.10
2022-12-31T05:35:49.916Z,13.10
2022-12-31T05:38:16.609Z,13.10
2022-12-31T05:40:43.365Z,13.10
2022-12-31T05:43:10.082Z,13.20
2022-12-31T05:45:37.133Z,13.20
2022-12-31T05:48:03.952Z,13.20
2022-12-31T05:50:30.686Z,13.20
2022-12-31T05:53:04.022Z,13.20
2022-12-31T05:55:30.721Z,13.20
2022-12-31T05:57:57.505Z,13.30
2022-12-31T06:00:24.212Z,13.30
2022-12-31T06:02:50.929Z,13.30
2022-12-31T06:05:22.457Z,13.40
2022-12-31T06:07:52.519Z,13.40
2022-12-31T06:10:19.139Z,13.40
2022-12-31T06:12:45.789Z,13.50
2022-12-31T06:15:12.477Z,13.50
2022-12-31T06:17:39.128Z,13.50
2022-12-31T06:20:12.249Z,13.50
2022-12-31T06:22:39.785Z,13.60
2022-12-31T06:25:06.748Z,13.70
2022-12-31T06:27:33.388Z,13.80
2022-12-31T06:30:00.103Z,13.90
2022-12-31T06:32:26.791Z,13.90
2022-12-31T06:34:53.420Z,13.90
2022-12-31T06:37:20.115Z,13.90
2022-12-31T06:39:46.742Z,13.90
2022-12-31T06:42:14.378Z,13.80
2022-12-31T06:44:41.022Z,13.90
2022-12-31T06:47:07.647Z,13.80
2022-12-31T06:49:34.323Z,13.80
2022-12-31T06:52:01.047Z,13.80
2022-12-31T06:54:27.712Z,13.80
2022-12-31T06:56:54.439Z,13.90
2022-12-31T06:59:25.659Z,13.90
2022-12-31T07:01:52.394Z,14.00
2022-12-31T07:04:27.882Z,14.00
2022-12-31T07:07:13.722Z,14.10
2022-12-31T07:10:00.321Z,14.20
2022-12-31T07:12:26.925Z,14.30
2022-12-31T07:15:04.099Z,14.30
2022-12-31T07:17:47.721Z,14.40
2022-12-31T07:20:15.976Z,14.40
2022-12-31T07:22:43.084Z,14.40
2022-12-31T07:25:13.408Z,14.50
2022-12-31T07:27:58.670Z,14.50
2022-12-31T07:30:34.217Z,14.50
2022-12-31T07:33:19.442Z,14.50
2022-12-31T07:35:52.324Z,14.60
2022-12-31T07:38:25.221Z,14.60
2022-12-31T07:41:07.366Z,14.70
2022-12-31T07:43:39.796Z,14.70
2022-12-31T07:46:28.663Z,14.70
2022-12-31T07:48:55.587Z,14.80
2022-12-31T07:51:22.607Z,14.80
2022-12-31T07:53:49.302Z,14.90
2022-12-31T07:56:15.963Z,14.90
2022-12-31T07:59:02.575Z,15.00
2022-12-31T08:01:49.514Z,15.00
2022-12-31T08:04:31.837Z,15.10
2022-12-31T08:07:11.380Z,15.10
2022-12-31T08:09:53.441Z,15.20
2022-12-31T08:12:21.280Z,15.20
2022-12-31T08:14:48.415Z,15.30
2022-12-31T08:17:16.152Z,15.20
2022-12-31T08:19:43.977Z,15.30
2022-12-31T08:22:23.561Z,15.30
2022-12-31T08:24:58.630Z,15.40
2022-12-31T08:27:37.110Z,15.40
2022-12-31T08:30:15.209Z,15.60
2022-12-31T08:32:44.798Z,15.70
2022-12-31T08:35:26.840Z,15.70
2022-12-31T08:38:04.134Z,15.80
2022-12-31T08:40:38.255Z,15.80
2022-12-31T08:43:04.911Z,15.80
2022-12-31T08:45:36.285Z,15.80
2022-12-31T08:48:08.485Z,15.80
2022-12-31T08:50:35.332Z,15.90
2022-12-31T08:53:02.123Z,15.90
2022-12-31T08:55:28.942Z,15.90
2022-12-31T08:57:55.827Z,16.00
2022-12-31T09:00:22.947Z,16.00
2022-12-31T09:02:49.816Z,16.10
2022-12-31T09:05:23.902Z,16.20
2022-12-31T09:08:04.232Z,16.50
2022-12-31T09:10:34.773Z,16.70
2022-12-31T09:13:09.939Z,16.80
2022-12-31T09:15:41.136Z,17.00
2022-12-31T09:18:08.462Z,16.80
2022-12-31T09:20:44.500Z,16.70
2022-12-31T09:23:12.773Z,16.70
2022-12-31T09:25:46.937Z,16.70
2022-12-31T09:28:16.292Z,17.00
2022-12-31T09:31:03.685Z,17.50
2022-12-31T09:33:40.389Z,17.90
2022-12-31T09:36:09.208Z,18.00
2022-12-31T09:38:54.655Z,18.30
2022-12-31T09:41:40.375Z,18.60
2022-12-31T09:44:16.988Z,18.70
2022-12-31T09:47:10.176Z,18.40
2022-12-31T09:49:39.967Z,18.00
2022-12-31T09:52:06.607Z,17.60
2022-12-31T09:54:39.375Z,17.20
2022-12-31T09:57:21.405Z,17.00
2022-12-31T09:59:57.265Z,16.90
2022-12-31T10:02:23.993Z,16.80
2022-12-31T10:05:08.706Z,16.80
2022-12-31T10:07:50.374Z,16.70
2022-12-31T10:10:22.090Z,16.60
2022-12-31T10:13:05.048Z,16.70
2022-12-31T10:15:49.952Z,16.90
2022-12-31T10:18:20.510Z,17.40
2022-12-31T10:21:05.973Z,17.50
2022-12-31T10:23:52.368Z,17.50
2022-12-31T10:26:31.456Z,17.50
2022-12-31T10:29:22.701Z,17.40
2022-12-31T10:32:14.266Z,17.30
2022-12-31T10:34:52.976Z,17.20
2022-12-31T10:37:22.947Z,17.10
2022-12-31T10:39:54.927Z,17.10
2022-12-31T10:42:30.796Z,17.10
2022-12-31T10:45:16.501Z,17.10
2022-12-31T10:47:55.119Z,17.20
2022-12-31T10:50:31.958Z,17.20
2022-12-31T10:53:11.458Z,17.30
2022-12-31T10:56:07.822Z,17.30
2022-12-31T10:58:38.022Z,17.30
2022-12-31T11:01:32.988Z,17.30
2022-12-31T11:04:18.808Z,17.20
2022-12-31T11:06:45.492Z,17.20
2022-12-31T11:09:15.139Z,17.20
2022-12-31T11:12:00.716Z,17.10
2022-12-31T11:14:52.104Z,17.10
2022-12-31T11:17:37.578Z,17.10
2022-12-31T11:20:14.949Z,17.10
2022-12-31T11:22:53.020Z,17.10
2022-12-31T11:25:38.599Z,17.10
2022-12-31T11:28:23.817Z,17.10
2022-12-31T11:30:50.541Z,17.00
2022-12-31T11:33:17.213Z,17.00
2022-12-31T11:35:49.791Z,17.00
2022-12-31T11:38:22.633Z,16.90
2022-12-31T11:41:01.829Z,16.90
2022-12-31T11:43:38.451Z,16.80
2022-12-31T11:46:05.207Z,16.80
2022-12-31T11:48:36.473Z,16.80
2022-12-31T11:51:12.217Z,16.90
2022-12-31T11:53:38.933Z,16.90
2022-12-31T11:56:20.080Z,17.00
2022-12-31T11:58:49.183Z,16.90
2022-12-31T12:01:19.804Z,16.90
2022-12-31T12:03:47.313Z,17.00
2022-12-31T12:06:17.451Z,17.10
2022-12-31T12:08:44.363Z,17.20
2022-12-31T12:11:19.290Z,17.30
2022-12-31T12:13:46.086Z,17.40
2022-12-31T12:16:13.116Z,17.50
2022-12-31T12:18:42.662Z,17.50
2022-12-31T12:21:17.361Z,17.50
2022-12-31T12:23:57.876Z,17.50
2022-12-31T12:26:45.401Z,17.50
2022-12-31T12:29:36.716Z,17.50
2022-12-31T12:32:05.226Z,17.50
2022-12-31T12:34:36.276Z,17.50
2022-12-31T12:37:03.410Z,17.50
2022-12-31T12:39:31.307Z,17.60
2022-12-31T12:42:08.305Z,17.50
2022-12-31T12:44:35.851Z,17.50
2022-12-31T12:47:03.906Z,17.40
2022-12-31T12:49:49.479Z,17.40
2022-12-31T12:52:31.566Z,17.40
2022-12-31T12:55:01.227Z,17.20
2022-12-31T12:57:38.493Z,17.20
2022-12-31T13:00:08.204Z,17.20
2022-12-31T13:02:41.108Z,17.20
2022-12-31T13:05:16.504Z,17.10
2022-12-31T13:07:49.217Z,17.10
2022-12-31T13:10:22.936Z,17.10
2022-12-31T13:16:00.750Z,17.10
2022-12-31T13:18:37.081Z,17.10
2022-12-31T13:21:03.706Z,17.00
2022-12-31T13:23:39.380Z,17.00
2022-12-31T13:26:06.517Z,17.00
2022-12-31T13:28:33.672Z,17.00
2022-12-31T13:31:07.037Z,16.90
2022-12-31T13:33:43.093Z,16.90
2022-12-31T13:36:17.385Z,16.90
2022-12-31T13:38:49.156Z,16.90
2022-12-31T13:41:21.436Z,16.80
2022-12-31T13:43:51.343Z,16.80
2022-12-31T13:46:37.428Z,16.80
2022-12-31T13:49:06.432Z,16.70
2022-12-31T13:51:50.253Z,16.70
2022-12-31T13:54:19.620Z,16.70
2022-12-31T13:56:48.379Z,16.70
2022-12-31T13:59:17.779Z,16.70
2022-12-31T14:01:51.957Z,16.70
2022-12-31T14:04:24.771Z,16.70
2022-12-31T14:07:04.583Z,16.70
2022-12-31T14:09:33.668Z,16.70
2022-12-31T14:12:09.508Z,16.70
2022-12-31T14:14:48.886Z,16.70
2022-12-31T14:17:19.298Z,16.70
2022-12-31T14:19:55.356Z,16.70
2022-12-31T14:22:31.156Z,16.70
2022-12-31T14:24:59.455Z,16.70
2022-12-31T14:27:35.081Z,16.70
2022-12-31T14:30:03.357Z,16.60
2022-12-31T14:32:48.700Z,16.60
2022-12-31T14:35:34.162Z,16.60
2022-12-31T14:38:19.655Z,16.50
2022-12-31T14:41:05.329Z,16.50
2022-12-31T14:43:44.052Z,16.50
2022-12-31T14:46:16.799Z,16.40
2022-12-31T14:48:46.888Z,16.40
2022-12-31T14:51:14.411Z,16.40
2022-12-31T14:53:50.910Z,16.30
2022-12-31T14:56:32.082Z,16.30
2022-12-31T14:59:01.036Z,16.30
2022-12-31T15:01:28.359Z,16.20
2022-12-31T15:03:58.477Z,16.20
2022-12-31T15:06:28.287Z,16.10
2022-12-31T15:09:14.083Z,16.00
2022-12-31T15:11:59.623Z,16.00
2022-12-31T15:14:26.273Z,16.00
2022-12-31T15:16:55.752Z,16.00
2022-12-31T15:19:25.751Z,16.00
2022-12-31T15:21:58.449Z,16.00
2022-12-31T15:24:30.361Z,16.00
2022-12-31T15:27:02.411Z,16.00
2022-12-31T15:29:29.176Z,15.90
2022-12-31T15:31:57.323Z,16.00
2022-12-31T15:34:43.090Z,15.90
2022-12-31T15:37:28.747Z,15.90
2022-12-31T15:40:05.661Z,15.90
2022-12-31T15:42:50.015Z,15.90
2022-12-31T15:45:24.797Z,15.70
2022-12-31T15:47:55.577Z,15.60
2022-12-31T15:50:23.157Z,15.60
2022-12-31T15:52:55.400Z,15.40
2022-12-31T15:55:25.382Z,15.40
2022-12-31T15:57:53.770Z,15.30
2022-12-31T16:00:22.566Z,15.40
2022-12-31T16:02:52.080Z,15.40
2022-12-31T16:05:20.509Z,15.40
2022-12-31T16:07:47.966Z,15.30
2022-12-31T16:10:21.577Z,15.30
2022-12-31T16:12:48.655Z,15.30
2022-12-31T16:15:20.829Z,15.30
2022-12-31T16:17:57.027Z,15.30
2022-12-31T16:20:30.383Z,15.30
2022-12-31T16:22:58.524Z,15.30
2022-12-31T16:25:32.335Z,15.30
2022-12-31T16:28:00.977Z,15.30
2022-12-31T16:30:29.149Z,15.30
2022-12-31T16:32:58.574Z,15.30
2022-12-31T16:35:27.194Z,15.30
2022-12-31T16:38:01.253Z,15.30
2022-12-31T16:40:28.118Z,15.30
2022-12-31T16:42:54.774Z,15.40
2022-12-31T16:45:35.190Z,15.30
2022-12-31T16:48:16.548Z,15.30
2022-12-31T16:50:52.098Z,15.30
2022-12-31T16:53:21.120Z,15.30
2022-12-31T16:55:55.615Z,15.30
2022-12-31T16:58:30.787Z,15.30
2022-12-31T17:01:23.979Z,15.40
2022-12-31T17:03:52.951Z,15.40
2022-12-31T17:06:20.009Z,15.30
2022-12-31T17:09:02.347Z,15.30
2022-12-31T17:11:39.248Z,15.30
2022-12-31T17:14:06.045Z,15.30
2022-12-31T17:16:33.875Z,15.30
2022-12-31T17:19:00.552Z,15.30
2022-12-31T17:21:28.705Z,15.20
2022-12-31T17:23:56.882Z,15.20
2022-12-31T17:26:28.264Z,15.20
2022-12-31T17:28:56.436Z,15.10
2022-12-31T17:31:34.055Z,15.10
2022-12-31T17:34:06.587Z,15.10
2022-12-31T17:36:33.511Z,15.00
2022-12-31T17:39:17.459Z,15.00
2022-12-31T17:41:44.992Z,14.90
2022-12-31T17:44:16.087Z,14.90
2022-12-31T17:46:43.133Z,14.90
2022-12-31T17:49:11.123Z,14.90
2022-12-31T17:51:41.229Z,14.80
2022-12-31T17:54:14.577Z,14.80
2022-12-31T17:56:41.597Z,14.80
2022-12-31T17:59:08.351Z,14.80
2022-12-31T18:01:35.543Z,14.80
2022-12-31T18:04:02.848Z,14.80
2022-12-31T18:06:29.566Z,14.80
2022-12-31T18:08:56.290Z,14.80
2022-12-31T18:11:23.823Z,14.90
2022-12-31T18:13:50.687Z,14.90
2022-12-31T18:16:17.514Z,14.90
2022-12-31T18:18:45.413Z,15.00
2022-12-31T18:21:18.212Z,15.00
2022-12-31T18:23:48.371Z,15.10
2022-12-31T18:26:19.775Z,15.10
2022-12-31T18:28:46.606Z,15.10
2022-12-31T18:31:17.749Z,15.10
2022-12-31T18:33:44.576Z,15.10
2022-12-31T18:36:15.543Z,15.10
2022-12-31T18:38:42.681Z,15.10
2022-12-31T18:41:17.614Z,15.10
2022-12-31T18:43:44.562Z,15.10
2022-12-31T18:46:15.641Z,15.20
2022-12-31T18:48:42.430Z,15.20
2022-12-31T18:51:13.769Z,15.10
2022-12-31T18:53:40.469Z,15.10
2022-12-31T18:56:10.200Z,15.10
2022-12-31T18:58:36.913Z,15.10
2022-12-31T19:01:03.915Z,15.10
2022-12-31T19:03:31.907Z,15.10
2022-12-31T19:05:58.816Z,15.10
2022-12-31T19:08:26.074Z,15.00
2022-12-31T19:10:53.615Z,15.10
2022-12-31T19:13:20.839Z,15.00
2022-12-31T19:15:48.817Z,15.00
2022-12-31T19:18:15.863Z,15.00
2022-12-31T19:20:42.787Z,15.00
2022-12-31T19:23:17.885Z,15.00
2022-12-31T19:25:45.691Z,14.90
2022-12-31T19:28:16.020Z,14.90
2022-12-31T19:30:43.096Z,14.90
2022-12-31T19:33:09.749Z,14.90
2022-12-31T19:35:37.347Z,14.80
2022-12-31T19:38:05.755Z,14.80
2022-12-31T19:40:32.541Z,14.80
2022-12-31T19:42:59.333Z,14.80
2022-12-31T19:45:27.179Z,14.80
2022-12-31T19:47:54.491Z,14.80
2022-12-31T19:50:23.119Z,14.80
2022-12-31T19:52:50.817Z,14.70
2022-12-31T19:55:19.416Z,14.70
2022-12-31T19:57:46.507Z,14.70
2022-12-31T20:00:14.972Z,14.70
2022-12-31T20:02:42.477Z,14.70
2022-12-31T20:05:11.436Z,14.70
2022-12-31T20:07:38.479Z,14.70
2022-12-31T20:10:05.991Z,14.70
2022-12-31T20:12:32.771Z,14.70
2022-12-31T20:14:59.495Z,14.70
2022-12-31T20:17:26.231Z,14.70
2022-12-31T20:19:53.036Z,14.70
2022-12-31T20:22:19.947Z,14.70
2022-12-31T20:24:46.984Z,14.60
2022-12-31T20:27:18.454Z,14.60
2022-12-31T20:29:45.857Z,14.60
2022-12-31T20:32:12.579Z,14.50
2022-12-31T20:34:39.263Z,14.50
2022-12-31T20:37:06.045Z,14.50
2022-12-31T20:39:36.736Z,14.50
2022-12-31T20:42:03.611Z,14.50
2022-12-31T20:44:30.376Z,14.60
2022-12-31T20:46:57.090Z,14.70
2022-12-31T20:49:52.287Z,14.70
2022-12-31T20:52:13.509Z,14.70
2022-12-31T20:54:41.447Z,14.70
2022-12-31T20:57:08.481Z,14.70
2022-12-31T20:59:35.563Z,14.80
2022-12-31T21:04:49.400Z,14.80
2022-12-31T21:07:16.384Z,14.90
2022-12-31T21:09:43.101Z,14.90
2022-12-31T21:12:29.620Z,14.80
2022-12-31T21:14:56.454Z,14.80
2022-12-31T21:17:23.473Z,14.80
2022-12-31T21:19:50.165Z,14.90
2022-12-31T21:22:16.915Z,14.90
2022-12-31T21:24:43.706Z,14.80
2022-12-31T21:27:10.447Z,14.80
2022-12-31T21:30:01.604Z,14.80
2022-12-31T21:32:24.720Z,14.70
2022-12-31T21:35:31.160Z,14.70
2022-12-31T21:37:57.941Z,14.70
2022-12-31T21:40:28.519Z,14.70
2022-12-31T21:42:55.323Z,14.70
2022-12-31T21:45:22.050Z,14.70
2022-12-31T21:48:09.149Z,14.70
2022-12-31T21:50:35.899Z,14.70
2022-12-31T21:53:02.643Z,14.70
2022-12-31T21:55:48.030Z,14.80
2022-12-31T21:58:25.760Z,14.80
2022-12-31T22:01:12.957Z,14.70
2022-12-31T22:03:40.221Z,14.70
2022-12-31T22:06:12.326Z,14.60
2022-12-31T22:08:43.091Z,14.70
2022-12-31T22:11:10.701Z,14.80
2022-12-31T22:13:37.454Z,14.80
2022-12-31T22:16:06.002Z,14.80
2022-12-31T22:18:35.032Z,14.80
2022-12-31T22:21:13.759Z,14.70
2022-12-31T22:23:43.111Z,14.80
2022-12-31T22:26:11.566Z,14.80
2022-12-31T22:28:40.284Z,14.70
2022-12-31T22:31:08.034Z,14.70
2022-12-31T22:33:34.792Z,14.60
2022-12-31T22:36:02.937Z,14.60
2022-12-31T22:38:30.207Z,14.60
2022-12-31T22:41:11.121Z,14.60
2022-12-31T22:43:45.200Z,14.50
2022-12-31T22:46:13.469Z,14.50
2022-12-31T22:48:40.570Z,14.50
2022-12-31T22:51:07.993Z,14.50
2022-12-31T22:53:34.810Z,14.50
2022-12-31T22:56:01.999Z,14.50
2022-12-31T22:58:28.773Z,14.50
2022-12-31T23:00:55.578Z,14.40
2022-12-31T23:03:22.475Z,14.40
2022-12-31T23:05:52.753Z,14.40
2022-12-31T23:08:23.603Z,14.40
2022-12-31T23:11:03.187Z,14.40
2022-12-31T23:13:51.426Z,14.40
2022-12-31T23:16:37.852Z,14.30
2022-12-31T23:19:24.136Z,14.40
2022-12-31T23:22:09.907Z,14.40
2022-12-31T23:24:36.885Z,14.40
2022-12-31T23:27:03.770Z,14.40
2022-12-31T23:29:30.561Z,14.40
2022-12-31T23:31:57.700Z,14.40
2022-12-31T23:34:24.588Z,14.40
2022-12-31T23:36:51.481Z,14.40
2022-12-31T23:39:18.523Z,14.40
2022-12-31T23:41:45.363Z,14.40
2022-12-31T23:44:12.351Z,14.40
2022-12-31T23:46:39.634Z,14.40
2022-12-31T23:49:06.934Z,14.40
2022-12-31T23:51:33.694Z,14.30
2022-12-31T23:54:00.943Z,14.30
2022-12-31T23:56:27.985Z,14.30
2022-12-31T23:58:55.811Z,14.30
